Carolina Beach, North Carolina
Current Conditions -  °F | °C
As of 3:55 AM on Friday 24 Oct 2014 (Local Time) from KSUT Reporting Station
Clear Clear  
Wind Chill: 51°   Ceiling: Unl
Heat Index: 51°   Visibility: 10mi
Dew Point: 45°   Wind: 7mph
Humidity: 80%   Direction: 330°NNW
Pressure: 29.98"   Gusts: NA
Location:  34.04°N, 77.89°W
Report Text: KSUT 240755Z AUTO 33006KT 10SM CLR 10/07 A2998 RMK AO2 T01040070
Loading
Personal Weather Stations






























Interactive Weather Map New forecast layout! Learn more

10-Day Weather Forecast

Advertisements
Track Severe Weather on mobile